Stratford, OK (74872)

5:24 AM CDT on September 23, 2014 (GMT -0500)
Lake View | Change Station
CLOSE
Current Station
Personal Weather Station
Location: Stratford, OK
Elevation: 1135 ft
Nearby Weather Stations

Elev 1135 ft 34.79 °N, 96.96 °W | Updated 0 second ago

Clear
Clear
56.1 °F
Feels Like 56.1 °F
N
4.0
Wind Variable Wind from SSE
Gusts 4.0 mph

Today
High -- | Low -- °F
--% Chance of Precip.
Yesterday
High -- | Low -- °F
Precip. -- in
7:16 AM 7:23 PM
Waning Crescent, 1% visible
Pressure 30.20 in
Visibility 10.0 miles
Clouds Clear
Dew Point 53 °F
Humidity 88%
Rainfall 0.00 in
Snow Depth Not available.
UV 0 out of 12
Pollen 9.80 out of 12
Air Quality Not available.
Flu Activity Not available.
METAR KADH 231015Z AUTO 14007KT 10SM CLR 13/12 A3020 RMK AO2

More Conditions Fewer Conditions

Pressure 30.20 in
Visibility 10.0 miles
Clouds Clear
Dew Point 53 °F
Humidity 88%
Rainfall 0.00 in
Snow Depth Not available.
UV 0 out of 12
Pollen 9.80 out of 12
Air Quality Not available.
Flu Activity Not available.
METAR KADH 231015Z AUTO 14007KT 10SM CLR 13/12 A3020 RMK AO2

More Conditions Fewer Conditions

10-Day Weather Forecast

Almanac

Astronomy

Sep. 23, 2014 Rise Set
Actual Time 7:16 AM CDT 7:23 PM CDT
Civil Twilight 6:51 AM CDT 7:48 PM CDT
Nautical Twilight 6:21 AM CDT 8:17 PM CDT
Astronomical Twilight 5:52 AM CDT 8:47 PM CDT
Moon 6:42 AM CDT 7:03 PM CDT
Length of Visible Light 12h 56m
Length of Day
12h 06m
Tomorrow will be 2m 10s shorter.
Waning Crescent, 1% of the Moon is Illuminated
Today
Waning Crescent
Sep 24
New
Oct 1
First Quarter
Oct 8
Full
Oct 15
Last Quarter

Today's Extremes

State Highs State Lows

Community

WunderPhotos

Upload Photos

1,755,645 photos uploaded!

Nearby

Snow Depth

Station Depth Elevation
No new snow has been reported.

Earthquake Activity

City Distance Mag. Time & Date
Boley, Oklahoma 51 miles 3.4 2:58 AM CDT
2014-09-23
Perry, Oklahoma 105 miles 2.7 7:24 PM CDT
2014-09-22
Bray, Oklahoma 36 miles 3.6 2:28 PM CDT
2014-09-22
Luther, Oklahoma 60 miles 2.7 4:47 PM CDT
2014-09-19
Minimum magnitude displayed is 2.5.

Coastal Water Temperatures

Place Temperature
No Stations Reporting

Nearby Weather Stations